Terminal Aerodrome Forecast
Issued by NWS

Home | Current Version | Previous Version | Text Only | Print | Product List | Glossary On
Versions: 1 2 3 4 5 6 7 8 9 10 11 12 13 14 15 16 17 18 19 20 21 22 23 24 25 26 27 28 29 30 31 32 33 34 35
000
FTUS43 KDDC 190223 AAB
TAFHYS
TAF AMD
KHYS 190223Z 1902/1924 17021G25KT P6SM SKC WS020/21040KT
     FM190600 36017G27KT P6SM SCT250
     FM190900 36015G25KT P6SM OVC007
     FM191500 01012KT P6SM OVC020
     FM191800 06010G20KT P6SM OVC020=

USA.gov is the U.S. government's official web portal to all federal, state and local government web resources and services.